createdAt,value
2019-01-11T00:00:56.116Z,69.07
2019-01-11T00:01:56.093Z,68.55
2019-01-11T00:02:56.081Z,67.51
2019-01-11T00:03:56.083Z,68.24
2019-01-11T00:04:56.066Z,67.72
2019-01-11T00:05:56.049Z,67.41
2019-01-11T00:06:56.048Z,68.76
2019-01-11T00:07:56.025Z,68.35
2019-01-11T00:08:56.028Z,68.66
2019-01-11T00:09:56.017Z,68.24
2019-01-11T00:10:55.993Z,68.03
2019-01-11T00:11:55.984Z,67.20
2019-01-11T00:12:55.980Z,68.66
2019-01-11T00:13:55.962Z,67.61
2019-01-11T00:14:55.962Z,67.93
2019-01-11T00:15:55.942Z,68.35
2019-01-11T00:16:55.937Z,68.13
2019-01-11T00:17:55.920Z,68.45
2019-01-11T00:18:55.904Z,67.82
2019-01-11T00:19:55.903Z,67.72
2019-01-11T00:20:55.881Z,68.35
2019-01-11T00:21:55.869Z,67.51
2019-01-11T00:22:55.860Z,67.51
2019-01-11T00:23:55.847Z,68.55
2019-01-11T00:24:55.850Z,67.61
2019-01-11T00:25:55.825Z,68.97
2019-01-11T00:26:55.813Z,69.18
2019-01-11T00:27:55.806Z,68.76
2019-01-11T00:28:55.793Z,68.76
2019-01-11T00:29:55.790Z,67.72
2019-01-11T00:30:55.770Z,68.35
2019-01-11T00:31:55.765Z,68.03
2019-01-11T00:32:55.747Z,67.17
2019-01-11T00:33:55.736Z,67.30
2019-01-11T00:34:56.003Z,67.82
2019-01-11T00:35:55.715Z,67.82
2019-01-11T00:36:55.702Z,67.61
2019-01-11T00:37:55.728Z,66.99
2019-01-11T00:38:55.680Z,67.30
2019-01-11T00:39:55.673Z,67.61
2019-01-11T00:40:55.671Z,67.17
2019-01-11T00:41:55.651Z,67.51
2019-01-11T00:42:55.637Z,67.38
2019-01-11T00:43:55.625Z,68.24
2019-01-11T00:44:55.615Z,67.61
2019-01-11T00:45:55.614Z,67.48
2019-01-11T00:46:55.592Z,66.78
2019-01-11T00:47:55.587Z,66.75
2019-01-11T00:48:55.581Z,66.33
2019-01-11T00:49:55.564Z,66.86
2019-01-11T00:50:55.564Z,66.33
2019-01-11T00:51:55.550Z,66.33
2019-01-11T00:52:55.535Z,66.75
2019-01-11T00:53:55.529Z,66.44
2019-01-11T00:54:55.509Z,67.27
2019-01-11T00:55:55.505Z,67.51
2019-01-11T00:56:55.483Z,68.35
2019-01-11T00:57:55.482Z,68.87
2019-01-11T00:58:55.468Z,69.31
2019-01-11T00:59:55.461Z,69.42
2019-01-11T01:00:55.463Z,69.63
2019-01-11T01:01:55.430Z,70.36
2019-01-11T01:02:55.415Z,70.81
2019-01-11T01:03:55.403Z,71.12
2019-01-11T01:04:55.396Z,70.70
2019-01-11T01:05:55.406Z,70.67
2019-01-11T01:06:55.373Z,70.81
2019-01-11T01:07:55.360Z,71.33
2019-01-11T01:08:55.349Z,70.36
2019-01-11T01:09:55.339Z,70.39
2019-01-11T01:10:55.346Z,70.25
2019-01-11T01:11:55.315Z,70.91
2019-01-11T01:12:55.311Z,70.91
2019-01-11T01:13:55.296Z,70.91
2019-01-11T01:14:55.282Z,70.78
2019-01-11T01:15:55.283Z,70.78
2019-01-11T01:16:55.260Z,70.36
2019-01-11T01:17:55.249Z,70.28
2019-01-11T01:18:55.237Z,70.60
2019-01-11T01:19:55.225Z,71.22
2019-01-11T01:20:55.229Z,71.43
2019-01-11T01:21:55.205Z,71.53
2019-01-11T01:22:55.202Z,71.64
2019-01-11T01:23:55.182Z,71.98
2019-01-11T01:24:55.172Z,72.06
2019-01-11T01:25:55.160Z,72.58
2019-01-11T01:26:55.161Z,71.88
2019-01-11T01:27:55.171Z,72.30
2019-01-11T01:28:55.133Z,72.09
2019-01-11T01:29:55.117Z,72.16
2019-01-11T01:30:55.113Z,72.19
2019-01-11T01:31:55.103Z,72.19
2019-01-11T01:32:55.086Z,72.19
2019-01-11T01:33:55.076Z,72.41
2019-01-11T01:34:55.063Z,72.61
2019-01-11T01:35:55.057Z,72.30
2019-01-11T01:36:55.051Z,72.16
2019-01-11T01:37:55.028Z,72.61
2019-01-11T01:38:55.035Z,72.47
2019-01-11T01:39:55.007Z,72.19
2019-01-11T01:40:54.995Z,72.82
2019-01-11T01:41:55.011Z,73.00
2019-01-11T01:42:54.976Z,73.31
2019-01-11T01:43:54.961Z,73.10
2019-01-11T01:44:54.957Z,72.89
2019-01-11T01:45:54.938Z,73.31
2019-01-11T01:46:54.944Z,73.21
2019-01-11T01:47:54.917Z,73.17
2019-01-11T01:48:54.905Z,73.59
2019-01-11T01:49:54.892Z,73.80
2019-01-11T01:50:54.883Z,73.38
2019-01-11T01:51:54.882Z,73.38
2019-01-11T01:52:54.878Z,73.17
2019-01-11T01:53:54.848Z,73.52
2019-01-11T01:54:54.839Z,73.69
2019-01-11T01:55:54.827Z,73.17
2019-01-11T01:56:54.834Z,73.27
2019-01-11T01:57:54.808Z,73.27
2019-01-11T01:58:54.792Z,73.27
2019-01-11T01:59:54.785Z,73.80
2019-01-11T02:00:54.772Z,72.96
2019-01-11T02:01:54.772Z,73.17
2019-01-11T02:02:54.756Z,72.75
2019-01-11T02:03:54.736Z,72.34
2019-01-11T02:04:54.764Z,72.55
2019-01-11T02:05:54.715Z,72.86
2019-01-11T02:06:54.717Z,73.07
2019-01-11T02:07:54.697Z,72.89
2019-01-11T02:08:54.683Z,73.00
2019-01-11T02:09:54.680Z,73.41
2019-01-11T02:10:54.663Z,72.86
2019-01-11T02:11:54.680Z,73.49
2019-01-11T02:12:54.638Z,73.49
2019-01-11T02:13:54.628Z,72.75
2019-01-11T02:14:54.615Z,72.44
2019-01-11T02:15:54.620Z,72.13
2019-01-11T02:16:54.609Z,72.37
2019-01-11T02:17:54.601Z,72.58
2019-01-11T02:18:55.384Z,72.16
2019-01-11T02:19:54.561Z,72.75
2019-01-11T02:20:54.552Z,72.06
2019-01-11T02:21:54.541Z,72.78
2019-01-11T02:22:54.545Z,73.10
2019-01-11T02:23:54.527Z,72.89
2019-01-11T02:24:54.511Z,73.00
2019-01-11T02:25:54.496Z,73.00
2019-01-11T02:26:54.505Z,73.21
2019-01-11T02:27:54.495Z,73.21
2019-01-11T02:28:54.463Z,73.21
2019-01-11T02:29:54.454Z,73.52
2019-01-11T02:30:54.445Z,73.31
2019-01-11T02:31:54.434Z,73.27
2019-01-11T02:32:54.448Z,73.07
2019-01-11T02:33:54.417Z,73.21
2019-01-11T02:34:54.405Z,73.41
2019-01-11T02:35:54.386Z,73.83
2019-01-11T02:36:54.390Z,74.04
2019-01-11T02:37:54.387Z,74.04
2019-01-11T02:38:54.354Z,73.83
2019-01-11T02:39:54.359Z,74.21
2019-01-11T02:40:54.334Z,74.04
2019-01-11T02:41:54.319Z,74.11
2019-01-11T02:42:54.355Z,73.90
2019-01-11T02:43:54.299Z,74.01
2019-01-11T02:44:54.285Z,74.01
2019-01-11T02:45:54.293Z,73.69
2019-01-11T02:46:54.272Z,74.21
2019-01-11T02:47:54.279Z,74.11
2019-01-11T02:48:54.240Z,74.01
2019-01-11T02:49:55.156Z,74.01
2019-01-11T02:50:54.223Z,74.21
2019-01-11T02:51:54.231Z,74.21
2019-01-11T02:52:54.207Z,74.21
2019-01-11T02:53:54.193Z,74.32
2019-01-11T02:54:54.177Z,74.52
2019-01-11T02:55:54.170Z,74.70
2019-01-11T02:56:54.168Z,74.91
2019-01-11T02:57:54.176Z,74.95
2019-01-11T02:58:54.147Z,74.91
2019-01-11T02:59:54.122Z,74.42
2019-01-11T03:00:54.115Z,74.74
2019-01-11T03:01:54.102Z,74.91
2019-01-11T03:02:54.097Z,75.22
2019-01-11T03:03:54.103Z,74.91
2019-01-11T03:04:54.068Z,75.36
2019-01-11T03:05:54.053Z,74.91
2019-01-11T03:06:54.043Z,74.91
2019-01-11T03:07:54.041Z,75.01
2019-01-11T03:08:54.053Z,75.01
2019-01-11T03:09:54.010Z,75.12
2019-01-11T03:10:54.009Z,75.22
2019-01-11T03:11:53.990Z,75.36
2019-01-11T03:12:53.985Z,75.46
2019-01-11T03:13:53.980Z,75.67
2019-01-11T03:14:53.956Z,75.26
2019-01-11T03:15:53.947Z,75.22
2019-01-11T03:16:53.935Z,75.64
2019-01-11T03:17:53.923Z,75.43
2019-01-11T03:18:53.923Z,76.16
2019-01-11T03:19:53.914Z,75.85
2019-01-11T03:20:53.896Z,75.53
2019-01-11T03:21:53.876Z,75.43
2019-01-11T03:22:53.885Z,75.32
2019-01-11T03:23:53.872Z,75.85
2019-01-11T03:24:53.848Z,75.88
2019-01-11T03:25:53.830Z,76.09
2019-01-11T03:26:53.829Z,76.37
2019-01-11T03:27:53.824Z,75.85
2019-01-11T03:28:53.816Z,75.98
2019-01-11T03:29:53.786Z,75.46
2019-01-11T03:30:53.786Z,75.85
2019-01-11T03:31:53.770Z,75.95
2019-01-11T03:32:53.766Z,75.67
2019-01-11T03:33:53.762Z,75.53
2019-01-11T03:34:53.731Z,75.43
2019-01-11T03:35:53.725Z,75.64
2019-01-11T03:36:53.724Z,75.43
2019-01-11T03:37:53.701Z,75.53
2019-01-11T03:38:53.706Z,75.64
2019-01-11T03:39:53.674Z,75.95
2019-01-11T03:40:53.661Z,75.74
2019-01-11T03:41:53.676Z,75.53
2019-01-11T03:42:53.644Z,76.26
2019-01-11T03:43:53.668Z,75.74
2019-01-11T03:44:53.635Z,75.64
2019-01-11T03:45:53.617Z,76.16
2019-01-11T03:46:53.611Z,75.95
2019-01-11T03:47:53.605Z,76.37
2019-01-11T03:48:53.606Z,76.16
2019-01-11T03:49:55.080Z,77.03
2019-01-11T03:50:53.566Z,76.30
2019-01-11T03:51:53.570Z,76.40
2019-01-11T03:52:53.535Z,76.20
2019-01-11T03:53:53.533Z,77.06
2019-01-11T03:54:53.544Z,76.96
2019-01-11T03:55:53.498Z,76.86
2019-01-11T03:56:53.488Z,77.17
2019-01-11T03:57:53.490Z,77.37
2019-01-11T03:58:53.490Z,77.66
2019-01-11T03:59:53.485Z,77.13
2019-01-11T04:00:53.450Z,77.06
2019-01-11T04:01:53.431Z,77.13
2019-01-11T04:02:53.423Z,77.34
2019-01-11T04:03:53.438Z,77.55
2019-01-11T04:04:53.418Z,77.13
2019-01-11T04:05:53.389Z,77.34
2019-01-11T04:06:53.382Z,77.86
2019-01-11T04:07:53.370Z,78.11
2019-01-11T04:08:53.361Z,78.07
2019-01-11T04:09:53.364Z,77.97
2019-01-11T04:10:53.347Z,78.17
2019-01-11T04:11:53.319Z,77.97
2019-01-11T04:12:53.320Z,77.97
2019-01-11T04:13:53.307Z,78.07
2019-01-11T04:14:53.304Z,78.17
2019-01-11T04:15:53.280Z,78.17
2019-01-11T04:16:53.278Z,77.97
2019-01-11T04:17:53.256Z,78.07
2019-01-11T04:18:53.251Z,77.97
2019-01-11T04:19:53.254Z,77.97
2019-01-11T04:20:53.223Z,78.69
2019-01-11T04:21:53.228Z,78.69
2019-01-11T04:22:53.228Z,78.80
2019-01-11T04:23:53.188Z,78.07
2019-01-11T04:24:53.182Z,78.07
2019-01-11T04:25:53.184Z,78.17
2019-01-11T04:26:53.163Z,78.69
2019-01-11T04:27:53.171Z,78.69
2019-01-11T04:28:53.134Z,78.49
2019-01-11T04:29:53.125Z,78.38
2019-01-11T04:30:53.125Z,78.28
2019-01-11T04:31:53.119Z,78.59
2019-01-11T04:32:53.114Z,78.49
2019-01-11T04:33:53.090Z,79.01
2019-01-11T04:34:53.074Z,78.80
2019-01-11T04:35:53.082Z,78.80
2019-01-11T04:36:53.050Z,78.69
2019-01-11T04:37:53.116Z,78.80
2019-01-11T04:38:53.035Z,78.91
2019-01-11T04:39:53.009Z,79.32
2019-01-11T04:40:53.015Z,79.22
2019-01-11T04:41:52.989Z,79.43
2019-01-11T04:42:52.984Z,79.53
2019-01-11T04:43:52.990Z,79.43
2019-01-11T04:44:52.964Z,79.67
2019-01-11T04:45:52.965Z,79.94
2019-01-11T04:46:52.937Z,79.84
2019-01-11T04:47:52.929Z,79.74
2019-01-11T04:48:52.920Z,79.53
2019-01-11T04:49:52.920Z,79.53
2019-01-11T04:50:52.918Z,79.53
2019-01-11T04:51:52.877Z,79.63
2019-01-11T04:52:52.875Z,80.57
2019-01-11T04:53:52.882Z,80.47
2019-01-11T04:54:52.858Z,80.57
2019-01-11T04:55:52.841Z,79.84
2019-01-11T04:56:52.840Z,80.57
2019-01-11T04:57:52.810Z,79.84
2019-01-11T04:58:52.799Z,79.53
2019-01-11T04:59:52.797Z,79.11
2019-01-11T05:00:52.808Z,79.22
2019-01-11T05:01:52.797Z,79.32
2019-01-11T05:02:52.757Z,80.05
2019-01-11T05:03:52.749Z,80.57
2019-01-11T05:04:52.736Z,79.74
2019-01-11T05:05:52.726Z,79.39
2019-01-11T05:06:52.732Z,79.43
2019-01-11T05:07:52.720Z,79.32
2019-01-11T05:08:52.690Z,79.32
2019-01-11T05:09:52.678Z,79.43
2019-01-11T05:10:52.667Z,79.43
2019-01-11T05:11:52.670Z,79.63
2019-01-11T05:12:52.651Z,79.74
2019-01-11T05:13:52.637Z,79.84
2019-01-11T05:14:52.621Z,80.05
2019-01-11T05:15:52.613Z,80.57
2019-01-11T05:16:52.627Z,80.57
2019-01-11T05:17:52.611Z,80.57
2019-01-11T05:18:52.582Z,80.47
2019-01-11T05:19:52.568Z,80.47
2019-01-11T05:20:52.555Z,80.47
2019-01-11T05:21:52.566Z,79.98
2019-01-11T05:22:52.554Z,80.82
2019-01-11T05:23:52.542Z,81.09
2019-01-11T05:24:52.511Z,80.92
2019-01-11T05:25:52.497Z,80.82
2019-01-11T05:26:52.498Z,80.82
2019-01-11T05:27:52.477Z,80.61
2019-01-11T05:28:52.488Z,80.65
2019-01-11T05:29:52.469Z,80.61
2019-01-11T05:30:52.445Z,81.27
2019-01-11T05:31:52.445Z,81.13
2019-01-11T05:32:52.425Z,80.96
2019-01-11T05:33:52.411Z,81.06
2019-01-11T05:34:52.423Z,81.59
2019-01-11T05:35:52.403Z,81.27
2019-01-11T05:36:52.415Z,81.59
2019-01-11T05:37:52.367Z,80.85
2019-01-11T05:38:52.358Z,81.02
2019-01-11T05:39:52.349Z,80.65
2019-01-11T05:40:52.338Z,80.85
2019-01-11T05:41:52.349Z,81.38
2019-01-11T05:42:52.314Z,80.96
2019-01-11T05:43:52.303Z,81.27
2019-01-11T05:44:52.292Z,81.48
2019-01-11T05:45:52.288Z,81.34
2019-01-11T05:46:52.296Z,82.10
2019-01-11T05:47:52.259Z,81.16
2019-01-11T05:48:52.249Z,81.45
2019-01-11T05:49:52.257Z,81.90
2019-01-11T05:50:52.226Z,81.45
2019-01-11T05:51:52.219Z,81.34
2019-01-11T05:52:52.224Z,80.54
2019-01-11T05:53:52.192Z,80.51
2019-01-11T05:54:52.185Z,81.06
2019-01-11T05:55:52.179Z,81.23
2019-01-11T05:56:52.174Z,81.38
2019-01-11T05:57:52.198Z,81.02
2019-01-11T05:58:52.145Z,80.82
2019-01-11T05:59:52.131Z,81.23
2019-01-11T06:00:52.123Z,80.82
2019-01-11T06:01:52.126Z,81.16
2019-01-11T06:02:52.111Z,81.79
2019-01-11T06:03:52.088Z,81.55
2019-01-11T06:04:52.104Z,82.07
2019-01-11T06:05:52.100Z,82.17
2019-01-11T06:06:52.072Z,81.45
2019-01-11T06:07:52.059Z,81.45
2019-01-11T06:08:52.036Z,80.92
2019-01-11T06:09:52.031Z,81.13
2019-01-11T06:10:52.013Z,81.13
2019-01-11T06:11:52.016Z,81.02
2019-01-11T06:12:52.013Z,81.34
2019-01-11T06:13:51.993Z,81.23
2019-01-11T06:14:51.976Z,80.92
2019-01-11T06:15:51.957Z,80.92
2019-01-11T06:16:51.965Z,80.92
2019-01-11T06:17:51.950Z,81.02
2019-01-11T06:18:51.920Z,81.13
2019-01-11T06:19:51.907Z,81.45
2019-01-11T06:20:51.902Z,81.45
2019-01-11T06:21:51.894Z,81.55
2019-01-11T06:22:51.886Z,80.99
2019-01-11T06:23:51.873Z,81.55
2019-01-11T06:24:51.860Z,81.45
2019-01-11T06:25:51.869Z,81.23
2019-01-11T06:26:51.829Z,81.20
2019-01-11T06:27:51.845Z,81.55
2019-01-11T06:28:51.808Z,81.55
2019-01-11T06:29:51.810Z,82.17
2019-01-11T06:30:51.796Z,82.07
2019-01-11T06:31:51.775Z,82.07
2019-01-11T06:32:51.794Z,81.86
2019-01-11T06:33:51.755Z,82.80
2019-01-11T06:34:51.745Z,82.73
2019-01-11T06:35:51.735Z,82.59
2019-01-11T06:36:51.720Z,82.70
2019-01-11T06:37:51.717Z,82.70
2019-01-11T06:38:51.694Z,82.80
2019-01-11T06:39:51.684Z,82.80
2019-01-11T06:40:51.679Z,82.70
2019-01-11T06:41:51.678Z,82.90
2019-01-11T06:42:51.695Z,82.80
2019-01-11T06:43:51.655Z,81.65
2019-01-11T06:44:51.839Z,82.38
2019-01-11T06:45:51.631Z,82.38
2019-01-11T06:46:51.609Z,82.70
2019-01-11T06:47:51.615Z,83.53
2019-01-11T06:48:51.596Z,83.11
2019-01-11T06:49:51.595Z,83.84
2019-01-11T06:50:52.359Z,83.32
2019-01-11T06:51:51.566Z,83.84
2019-01-11T06:52:51.550Z,83.74
2019-01-11T06:53:51.555Z,83.63
2019-01-11T06:54:51.522Z,83.42
2019-01-11T06:55:51.511Z,83.74
2019-01-11T06:56:51.503Z,84.26
2019-01-11T06:57:51.483Z,83.98
2019-01-11T06:58:51.492Z,83.88
2019-01-11T06:59:51.467Z,83.53
2019-01-11T07:00:51.454Z,83.78
2019-01-11T07:01:51.439Z,84.16
2019-01-11T07:02:51.430Z,84.82
2019-01-11T07:03:51.435Z,84.78
2019-01-11T07:04:51.414Z,84.67
2019-01-11T07:05:51.397Z,84.88
2019-01-11T07:06:51.407Z,84.36
2019-01-11T07:07:51.371Z,84.26
2019-01-11T07:08:51.380Z,84.92
2019-01-11T07:09:51.353Z,84.16
2019-01-11T07:10:51.344Z,84.61
2019-01-11T07:11:51.342Z,84.82
2019-01-11T07:12:51.358Z,85.10
2019-01-11T07:13:51.317Z,84.67
2019-01-11T07:14:51.298Z,85.44
2019-01-11T07:15:51.285Z,85.86
2019-01-11T07:16:51.296Z,85.41
2019-01-11T07:17:51.348Z,84.92
2019-01-11T07:18:51.295Z,85.20
2019-01-11T07:19:51.245Z,84.61
2019-01-11T07:20:51.231Z,83.98
2019-01-11T07:21:51.223Z,83.98
2019-01-11T07:22:51.207Z,84.82
2019-01-11T07:23:51.205Z,85.03
2019-01-11T07:24:51.183Z,84.61
2019-01-11T07:25:51.171Z,84.75
2019-01-11T07:26:51.161Z,84.75
2019-01-11T07:27:51.150Z,85.76
2019-01-11T07:28:51.140Z,85.65
2019-01-11T07:29:51.142Z,85.86
2019-01-11T07:30:51.118Z,84.57
2019-01-11T07:31:51.108Z,84.40
2019-01-11T07:32:51.095Z,84.82
2019-01-11T07:33:51.084Z,84.61
2019-01-11T07:34:51.091Z,84.57
2019-01-11T07:35:51.064Z,84.72
2019-01-11T07:36:51.052Z,84.50
2019-01-11T07:37:51.041Z,84.92
2019-01-11T07:38:51.043Z,85.03
2019-01-11T07:39:51.050Z,85.24
2019-01-11T07:40:51.022Z,84.92
2019-01-11T07:41:50.998Z,84.78
2019-01-11T07:42:50.986Z,85.03
2019-01-11T07:43:50.979Z,85.34
2019-01-11T07:44:50.983Z,85.76
2019-01-11T07:45:50.953Z,85.76
2019-01-11T07:46:50.943Z,85.72
2019-01-11T07:47:50.934Z,86.07
2019-01-11T07:48:50.922Z,86.28
2019-01-11T07:49:50.921Z,85.41
2019-01-11T07:50:50.913Z,86.24
2019-01-11T07:51:50.891Z,85.61
2019-01-11T07:52:50.877Z,84.78
2019-01-11T07:53:50.866Z,84.72
2019-01-11T07:54:50.867Z,84.88
2019-01-11T07:55:50.844Z,85.72
2019-01-11T07:56:50.841Z,85.44
2019-01-11T07:57:50.824Z,86.13
2019-01-11T07:58:50.808Z,85.51
2019-01-11T07:59:50.817Z,85.44
2019-01-11T08:00:50.787Z,85.61
2019-01-11T08:01:50.778Z,85.10
2019-01-11T08:02:50.768Z,86.03
2019-01-11T08:03:50.758Z,85.30
2019-01-11T08:04:50.744Z,85.20
2019-01-11T08:05:50.746Z,86.20
2019-01-11T08:06:50.720Z,85.82
2019-01-11T08:07:50.711Z,84.78
2019-01-11T08:08:50.699Z,84.88
2019-01-11T08:09:50.692Z,84.36
2019-01-11T08:10:50.704Z,85.10
2019-01-11T08:11:50.667Z,84.67
2019-01-11T08:12:50.661Z,84.67
2019-01-11T08:13:50.645Z,84.57
2019-01-11T08:14:50.633Z,84.67
2019-01-11T08:15:50.644Z,84.88
2019-01-11T08:16:50.623Z,85.51
2019-01-11T08:17:50.603Z,86.13
2019-01-11T08:18:50.588Z,85.41
2019-01-11T08:19:50.580Z,85.61
2019-01-11T08:20:56.135Z,86.03
2019-01-11T08:21:51.557Z,85.61
2019-01-11T08:22:50.549Z,85.10
2019-01-11T08:23:50.534Z,85.20
2019-01-11T08:24:50.526Z,85.72
2019-01-11T08:25:50.528Z,85.61
2019-01-11T08:26:50.506Z,85.20
2019-01-11T08:27:50.498Z,85.61
2019-01-11T08:28:50.481Z,85.72
2019-01-11T08:29:50.472Z,85.61
2019-01-11T08:30:50.471Z,86.03
2019-01-11T08:31:50.450Z,85.51
2019-01-11T08:32:50.448Z,85.82
2019-01-11T08:33:50.433Z,85.82
2019-01-11T08:34:50.415Z,85.51
2019-01-11T08:35:50.424Z,85.58
2019-01-11T08:36:50.392Z,85.47
2019-01-11T08:37:50.383Z,84.99
2019-01-11T08:38:50.372Z,85.20
2019-01-11T08:39:50.359Z,85.72
2019-01-11T08:40:50.349Z,85.61
2019-01-11T08:41:50.353Z,85.76
2019-01-11T08:42:50.332Z,87.39
2019-01-11T08:43:50.316Z,86.18
2019-01-11T08:44:50.311Z,87.43
2019-01-11T08:45:50.297Z,86.80
2019-01-11T08:46:50.297Z,87.12
2019-01-11T08:47:50.282Z,87.28
2019-01-11T08:48:50.263Z,87.60
2019-01-11T08:49:50.253Z,88.06
2019-01-11T08:50:50.242Z,87.95
2019-01-11T08:51:50.241Z,87.43
2019-01-11T08:52:50.220Z,87.60
2019-01-11T08:53:50.208Z,87.49
2019-01-11T08:54:50.198Z,86.97
2019-01-11T08:55:50.187Z,87.49
2019-01-11T08:56:50.257Z,87.49
2019-01-11T08:57:50.163Z,87.81
2019-01-11T08:58:50.768Z,87.45
2019-01-11T08:59:50.143Z,87.04
2019-01-11T09:00:50.130Z,86.61
2019-01-11T09:01:50.131Z,86.24
2019-01-11T09:02:50.109Z,87.07
2019-01-11T09:03:50.097Z,87.39
2019-01-11T09:04:50.085Z,87.63
2019-01-11T09:05:50.077Z,87.84
2019-01-11T09:06:50.083Z,87.95
2019-01-11T09:07:50.077Z,89.10
2019-01-11T09:08:50.043Z,88.16
2019-01-11T09:09:50.033Z,87.63
2019-01-11T09:10:50.024Z,88.06
2019-01-11T09:11:50.023Z,87.91
2019-01-11T09:12:49.997Z,87.81
2019-01-11T09:13:49.988Z,87.60
2019-01-11T09:14:49.978Z,87.49
2019-01-11T09:15:49.965Z,86.35
2019-01-11T09:16:49.976Z,86.03
2019-01-11T09:17:49.945Z,85.34
2019-01-11T09:18:49.932Z,85.97
2019-01-11T09:19:49.930Z,86.28
2019-01-11T09:20:49.957Z,87.49
2019-01-11T09:21:49.899Z,87.01
2019-01-11T09:22:49.920Z,86.69
2019-01-11T09:23:49.882Z,87.22
2019-01-11T09:24:49.867Z,86.66
2019-01-11T09:25:49.856Z,87.43
2019-01-11T09:26:49.851Z,87.18
2019-01-11T09:27:49.865Z,87.39
2019-01-11T09:28:49.821Z,86.03
2019-01-11T09:29:49.811Z,86.13
2019-01-11T09:30:49.799Z,87.07
2019-01-11T09:31:49.788Z,87.49
2019-01-11T09:32:49.796Z,86.66
2019-01-11T09:33:49.771Z,86.18
2019-01-11T09:34:49.756Z,86.97
2019-01-11T09:35:49.789Z,87.63
2019-01-11T09:36:49.736Z,87.07
2019-01-11T09:37:49.734Z,87.18
2019-01-11T09:38:49.728Z,87.91
2019-01-11T09:39:49.704Z,87.91
2019-01-11T09:40:49.703Z,87.18
2019-01-11T09:41:49.677Z,87.81
2019-01-11T09:42:49.684Z,87.76
2019-01-11T09:43:49.666Z,86.41
2019-01-11T09:44:49.657Z,87.14
2019-01-11T09:45:49.656Z,86.51
2019-01-11T09:46:49.639Z,86.10
2019-01-11T09:47:49.625Z,85.61
2019-01-11T09:48:49.617Z,86.66
2019-01-11T09:49:49.607Z,86.87
2019-01-11T09:50:49.581Z,87.70
2019-01-11T09:51:49.570Z,87.91
2019-01-11T09:52:49.578Z,87.39
2019-01-11T09:53:49.561Z,87.70
2019-01-11T09:54:49.547Z,87.81
2019-01-11T09:55:49.533Z,87.70
2019-01-11T09:56:49.530Z,87.95
2019-01-11T09:57:49.539Z,89.51
2019-01-11T09:58:49.509Z,88.99
2019-01-11T09:59:49.482Z,89.26
2019-01-11T10:00:49.473Z,89.68
2019-01-11T10:01:49.467Z,89.16
2019-01-11T10:02:49.492Z,88.64
2019-01-11T10:03:49.459Z,88.99
2019-01-11T10:04:49.428Z,89.26
2019-01-11T10:05:49.421Z,89.06
2019-01-11T10:06:49.437Z,88.95
2019-01-11T10:07:49.423Z,89.26
2019-01-11T10:08:49.394Z,89.16
2019-01-11T10:09:49.400Z,89.16
2019-01-11T10:10:49.362Z,88.53
2019-01-11T10:11:49.364Z,88.85
2019-01-11T10:12:49.346Z,89.06
2019-01-11T10:13:49.349Z,89.26
2019-01-11T10:14:49.335Z,89.16
2019-01-11T10:15:49.334Z,89.20
2019-01-11T10:16:49.304Z,89.37
2019-01-11T10:17:49.293Z,89.37
2019-01-11T10:18:49.297Z,89.31
2019-01-11T10:19:49.273Z,89.26
2019-01-11T10:20:49.255Z,90.20
2019-01-11T10:21:49.276Z,89.51
2019-01-11T10:22:49.236Z,89.83
2019-01-11T10:23:49.239Z,89.83
2019-01-11T10:24:49.249Z,90.25
2019-01-11T10:25:49.221Z,90.35
2019-01-11T10:26:49.191Z,90.66
2019-01-11T10:27:49.181Z,90.66
2019-01-11T10:28:49.187Z,89.93
2019-01-11T10:29:49.156Z,90.10
2019-01-11T10:30:49.150Z,89.26
2019-01-11T10:31:49.150Z,89.31
2019-01-11T10:32:49.136Z,89.31
2019-01-11T10:33:49.155Z,89.41
2019-01-11T10:34:49.102Z,89.37
2019-01-11T10:35:49.094Z,89.06
2019-01-11T10:36:49.079Z,88.85
2019-01-11T10:37:49.074Z,88.99
2019-01-11T10:38:49.080Z,89.16
2019-01-11T10:39:49.047Z,89.06
2019-01-11T10:40:49.036Z,89.41
2019-01-11T10:41:49.041Z,89.16
2019-01-11T10:42:49.017Z,89.26
2019-01-11T10:43:49.030Z,89.78
2019-01-11T10:44:49.026Z,89.37
2019-01-11T10:45:48.988Z,89.16
2019-01-11T10:46:49.323Z,89.37
2019-01-11T10:47:48.965Z,89.37
2019-01-11T10:48:48.973Z,89.58
2019-01-11T10:49:48.970Z,89.16
2019-01-11T10:50:48.929Z,89.58
2019-01-11T10:51:48.920Z,89.26
2019-01-11T10:52:48.908Z,89.26
2019-01-11T10:53:48.894Z,89.72
2019-01-11T10:54:48.917Z,89.62
2019-01-11T10:55:48.884Z,89.47
2019-01-11T10:56:48.866Z,89.58
2019-01-11T10:57:48.853Z,89.68
2019-01-11T10:58:48.840Z,89.68
2019-01-11T10:59:48.852Z,89.83
2019-01-11T11:00:48.826Z,90.41
2019-01-11T11:01:48.832Z,90.72
2019-01-11T11:02:48.798Z,90.62
2019-01-11T11:03:48.788Z,90.31
2019-01-11T11:04:48.788Z,90.31
2019-01-11T11:05:48.779Z,90.62
2019-01-11T11:06:48.768Z,91.25
2019-01-11T11:07:48.758Z,91.77
2019-01-11T11:08:48.734Z,91.14
2019-01-11T11:09:48.760Z,90.52
2019-01-11T11:10:48.719Z,91.46
2019-01-11T11:11:48.709Z,90.66
2019-01-11T11:12:48.708Z,91.60
2019-01-11T11:13:48.680Z,91.77
2019-01-11T11:14:48.684Z,92.12
2019-01-11T11:15:48.657Z,92.60
2019-01-11T11:16:48.676Z,93.16
2019-01-11T11:17:48.652Z,92.85
2019-01-11T11:18:48.622Z,92.75
2019-01-11T11:19:48.627Z,92.96
2019-01-11T11:20:48.606Z,93.06
2019-01-11T11:21:48.600Z,93.06
2019-01-11T11:22:48.582Z,93.06
2019-01-11T11:23:48.573Z,93.27
2019-01-11T11:24:48.583Z,93.48
2019-01-11T11:25:48.556Z,93.69
2019-01-11T11:26:48.560Z,93.59
2019-01-11T11:27:48.533Z,93.69
2019-01-11T11:28:48.523Z,93.16
2019-01-11T11:29:48.538Z,93.69
2019-01-11T11:30:50.994Z,94.42
2019-01-11T11:31:48.514Z,94.94
2019-01-11T11:32:48.479Z,94.42
2019-01-11T11:33:48.461Z,94.98
2019-01-11T11:34:48.482Z,94.98
2019-01-11T11:35:48.445Z,94.88
2019-01-11T11:36:48.426Z,94.57
2019-01-11T11:37:48.421Z,94.78
2019-01-11T11:38:48.407Z,95.19
2019-01-11T11:39:48.404Z,94.88
2019-01-11T11:40:48.401Z,95.72
2019-01-11T11:41:48.380Z,95.56
2019-01-11T11:42:49.228Z,95.61
2019-01-11T11:43:48.363Z,94.78
2019-01-11T11:44:48.340Z,95.19
2019-01-11T11:45:48.343Z,95.50
2019-01-11T11:46:48.328Z,96.34
2019-01-11T11:47:48.652Z,95.82
2019-01-11T11:48:48.316Z,95.72
2019-01-11T11:49:48.295Z,95.82
2019-01-11T11:50:48.302Z,96.03
2019-01-11T11:51:48.270Z,96.13
2019-01-11T11:52:48.257Z,96.03
2019-01-11T11:53:48.245Z,95.29
2019-01-11T11:54:48.234Z,95.50
2019-01-11T11:55:48.257Z,95.72
2019-01-11T11:56:48.213Z,95.50
2019-01-11T11:57:48.201Z,95.92
2019-01-11T11:58:48.189Z,95.72
2019-01-11T11:59:48.179Z,96.03
2019-01-11T12:00:48.197Z,96.13
2019-01-11T12:01:52.334Z,95.76
2019-01-11T12:02:48.174Z,96.03
2019-01-11T12:03:48.155Z,96.44
2019-01-11T12:04:48.125Z,96.66
2019-01-11T12:05:48.132Z,96.86
2019-01-11T12:06:48.104Z,96.13
2019-01-11T12:07:48.099Z,95.82
2019-01-11T12:08:48.081Z,96.03
2019-01-11T12:09:48.073Z,95.92
2019-01-11T12:10:48.075Z,95.92
2019-01-11T12:11:48.128Z,95.92
2019-01-11T12:12:48.061Z,95.92
2019-01-11T12:13:48.038Z,95.67
2019-01-11T12:14:48.066Z,96.09
2019-01-11T12:15:48.024Z,96.13
2019-01-11T12:16:48.009Z,95.50
2019-01-11T12:17:47.990Z,95.78
2019-01-11T12:18:47.973Z,95.88
2019-01-11T12:19:47.960Z,95.67
2019-01-11T12:20:47.982Z,96.40
2019-01-11T12:21:48.095Z,96.40
2019-01-11T12:22:47.930Z,96.30
2019-01-11T12:23:47.931Z,96.40
2019-01-11T12:24:47.907Z,96.09
2019-01-11T12:25:47.919Z,95.78
2019-01-11T12:26:47.892Z,95.78
2019-01-11T12:27:47.896Z,96.09
2019-01-11T12:28:47.897Z,95.56
2019-01-11T12:29:47.855Z,95.78
2019-01-11T12:30:47.845Z,95.04
2019-01-11T12:31:47.855Z,95.25
2019-01-11T12:32:47.822Z,95.15
2019-01-11T12:33:47.813Z,94.52
2019-01-11T12:34:47.801Z,94.42
2019-01-11T12:35:47.790Z,95.15
2019-01-11T12:36:47.795Z,95.04
2019-01-11T12:37:47.783Z,95.15
2019-01-11T12:38:47.761Z,94.94
2019-01-11T12:39:47.754Z,95.25
2019-01-11T12:40:47.773Z,94.84
2019-01-11T12:41:47.736Z,95.25
2019-01-11T12:42:47.718Z,94.94
2019-01-11T12:43:47.717Z,94.63
2019-01-11T12:44:47.693Z,95.10
2019-01-11T12:45:47.679Z,94.63
2019-01-11T12:46:47.680Z,94.84
2019-01-11T12:47:47.671Z,94.42
2019-01-11T12:48:47.646Z,94.73
2019-01-11T12:49:47.633Z,94.63
2019-01-11T12:50:47.659Z,94.31
2019-01-11T12:51:53.855Z,94.84
2019-01-11T12:52:48.610Z,95.10